Terminal Aerodrome Forecast
Issued by NWS Tallahassee, FL

Home | Current Version | Previous Version | Text Only | Print | Product List | Glossary On
Versions: 1 2 3 4 5 6 7 8 9 10 11 12
943
FTUS42 KTAE 272334
TAFTLH
TAF
KTLH 272334Z 2800/2824 VRB03KT P6SM SKC
     FM280900 27003KT 3SM BR SCT004 BKN007
     FM281300 27007KT P6SM SCT250=

USA.gov is the U.S. government's official web portal to all federal, state and local government web resources and services.